sensor_id;sensor_type;location;lat;lon;timestamp;P1;durP1;ratioP1;P2;durP2;ratioP2
12072;SDS011;6098;49.004;8.372;2022-08-02T00:08:23;2.91;;;1.30;;
12072;SDS011;6098;49.004;8.372;2022-08-02T00:23:14;1.99;;;1.17;;
12072;SDS011;6098;49.004;8.372;2022-08-02T00:38:06;4.29;;;1.30;;
12072;SDS011;6098;49.004;8.372;2022-08-02T00:52:58;4.21;;;1.50;;
12072;SDS011;6098;49.004;8.372;2022-08-02T01:07:49;2.71;;;1.41;;
12072;SDS011;6098;49.004;8.372;2022-08-02T01:38:13;4.40;;;1.45;;
12072;SDS011;6098;49.004;8.372;2022-08-02T01:53:07;1.70;;;1.30;;
12072;SDS011;6098;49.004;8.372;2022-08-02T02:07:59;1.84;;;1.60;;
12072;SDS011;6098;49.004;8.372;2022-08-02T02:22:50;2.09;;;1.50;;
12072;SDS011;6098;49.004;8.372;2022-08-02T02:37:41;3.24;;;1.55;;
12072;SDS011;6098;49.004;8.372;2022-08-02T02:52:33;3.66;;;1.79;;
12072;SDS011;6098;49.004;8.372;2022-08-02T03:07:25;3.92;;;1.91;;
12072;SDS011;6098;49.004;8.372;2022-08-02T03:22:15;3.28;;;1.90;;
12072;SDS011;6098;49.004;8.372;2022-08-02T03:37:07;2.78;;;2.11;;
12072;SDS011;6098;49.004;8.372;2022-08-02T03:51:58;4.24;;;2.25;;
12072;SDS011;6098;49.004;8.372;2022-08-02T04:06:49;7.04;;;3.96;;
12072;SDS011;6098;49.004;8.372;2022-08-02T04:21:42;4.94;;;2.90;;
12072;SDS011;6098;49.004;8.372;2022-08-02T04:36:33;3.17;;;2.24;;
12072;SDS011;6098;49.004;8.372;2022-08-02T04:51:23;3.71;;;2.47;;
12072;SDS011;6098;49.004;8.372;2022-08-02T05:06:15;3.99;;;2.67;;
12072;SDS011;6098;49.004;8.372;2022-08-02T05:21:08;5.81;;;2.75;;
12072;SDS011;6098;49.004;8.372;2022-08-02T05:35:59;5.91;;;3.49;;
12072;SDS011;6098;49.004;8.372;2022-08-02T05:50:53;4.03;;;3.15;;
12072;SDS011;6098;49.004;8.372;2022-08-02T06:05:47;5.14;;;3.90;;
12072;SDS011;6098;49.004;8.372;2022-08-02T06:20:36;4.43;;;4.00;;
12072;SDS011;6098;49.004;8.372;2022-08-02T06:35:42;5.36;;;4.40;;
12072;SDS011;6098;49.004;8.372;2022-08-02T06:50:40;6.39;;;5.12;;
12072;SDS011;6098;49.004;8.372;2022-08-02T07:05:38;4.71;;;4.06;;
12072;SDS011;6098;49.004;8.372;2022-08-02T07:20:29;4.87;;;4.37;;
12072;SDS011;6098;49.004;8.372;2022-08-02T07:35:22;5.24;;;4.60;;
12072;SDS011;6098;49.004;8.372;2022-08-02T07:50:15;6.01;;;4.26;;
12072;SDS011;6098;49.004;8.372;2022-08-02T08:05:08;5.25;;;3.78;;
12072;SDS011;6098;49.004;8.372;2022-08-02T08:20:00;7.22;;;3.87;;
12072;SDS011;6098;49.004;8.372;2022-08-02T08:34:52;5.71;;;3.69;;
12072;SDS011;6098;49.004;8.372;2022-08-02T08:49:45;3.24;;;2.66;;
12072;SDS011;6098;49.004;8.372;2022-08-02T09:04:38;3.12;;;2.81;;
12072;SDS011;6098;49.004;8.372;2022-08-02T09:19:31;4.11;;;2.53;;
12072;SDS011;6098;49.004;8.372;2022-08-02T09:34:23;3.47;;;2.70;;
12072;SDS011;6098;49.004;8.372;2022-08-02T09:49:16;4.11;;;3.28;;
12072;SDS011;6098;49.004;8.372;2022-08-02T10:04:09;3.71;;;3.42;;
12072;SDS011;6098;49.004;8.372;2022-08-02T10:19:00;2.93;;;2.64;;
12072;SDS011;6098;49.004;8.372;2022-08-02T10:33:53;3.64;;;3.34;;
12072;SDS011;6098;49.004;8.372;2022-08-02T11:04:02;3.77;;;3.30;;
12072;SDS011;6098;49.004;8.372;2022-08-02T11:33:52;4.43;;;3.30;;
12072;SDS011;6098;49.004;8.372;2022-08-02T11:48:45;3.99;;;3.51;;
12072;SDS011;6098;49.004;8.372;2022-08-02T12:03:39;3.81;;;3.07;;
12072;SDS011;6098;49.004;8.372;2022-08-02T12:18:31;4.26;;;3.08;;
12072;SDS011;6098;49.004;8.372;2022-08-02T12:33:50;3.53;;;3.23;;
12072;SDS011;6098;49.004;8.372;2022-08-02T12:48:45;5.23;;;3.32;;
12072;SDS011;6098;49.004;8.372;2022-08-02T13:03:38;3.44;;;3.14;;
12072;SDS011;6098;49.004;8.372;2022-08-02T13:18:30;2.97;;;2.64;;
12072;SDS011;6098;49.004;8.372;2022-08-02T13:33:24;3.28;;;2.56;;
12072;SDS011;6098;49.004;8.372;2022-08-02T13:48:17;3.30;;;2.61;;
12072;SDS011;6098;49.004;8.372;2022-08-02T14:03:09;2.52;;;2.34;;
12072;SDS011;6098;49.004;8.372;2022-08-02T14:18:04;4.34;;;2.51;;
12072;SDS011;6098;49.004;8.372;2022-08-02T14:32:58;4.79;;;2.28;;
12072;SDS011;6098;49.004;8.372;2022-08-02T14:47:52;3.36;;;2.13;;
12072;SDS011;6098;49.004;8.372;2022-08-02T15:02:46;3.16;;;2.00;;
12072;SDS011;6098;49.004;8.372;2022-08-02T15:17:40;2.76;;;1.88;;
12072;SDS011;6098;49.004;8.372;2022-08-02T15:32:33;2.91;;;2.19;;
12072;SDS011;6098;49.004;8.372;2022-08-02T15:47:28;1.97;;;1.70;;
12072;SDS011;6098;49.004;8.372;2022-08-02T16:02:21;2.18;;;1.99;;
12072;SDS011;6098;49.004;8.372;2022-08-02T16:17:12;1.96;;;1.61;;
12072;SDS011;6098;49.004;8.372;2022-08-02T16:32:03;4.17;;;2.23;;
12072;SDS011;6098;49.004;8.372;2022-08-02T16:47:08;2.03;;;1.78;;
12072;SDS011;6098;49.004;8.372;2022-08-02T17:01:59;2.30;;;2.10;;
12072;SDS011;6098;49.004;8.372;2022-08-02T17:16:51;2.97;;;2.33;;
12072;SDS011;6098;49.004;8.372;2022-08-02T17:31:45;2.68;;;2.48;;
12072;SDS011;6098;49.004;8.372;2022-08-02T17:46:36;2.90;;;2.60;;
12072;SDS011;6098;49.004;8.372;2022-08-02T18:01:29;3.33;;;2.48;;
12072;SDS011;6098;49.004;8.372;2022-08-02T18:16:20;4.01;;;2.60;;
12072;SDS011;6098;49.004;8.372;2022-08-02T18:31:12;2.40;;;2.19;;
12072;SDS011;6098;49.004;8.372;2022-08-02T18:46:04;3.51;;;2.52;;
12072;SDS011;6098;49.004;8.372;2022-08-02T19:01:01;2.59;;;2.18;;
12072;SDS011;6098;49.004;8.372;2022-08-02T19:15:52;3.17;;;2.73;;
12072;SDS011;6098;49.004;8.372;2022-08-02T19:30:44;2.94;;;2.72;;
12072;SDS011;6098;49.004;8.372;2022-08-02T19:45:36;3.19;;;2.59;;
12072;SDS011;6098;49.004;8.372;2022-08-02T20:00:28;2.94;;;2.63;;
12072;SDS011;6098;49.004;8.372;2022-08-02T20:15:19;6.23;;;2.79;;
12072;SDS011;6098;49.004;8.372;2022-08-02T20:30:10;4.44;;;3.23;;
12072;SDS011;6098;49.004;8.372;2022-08-02T20:45:03;5.19;;;3.60;;
12072;SDS011;6098;49.004;8.372;2022-08-02T20:59:58;5.17;;;3.04;;
12072;SDS011;6098;49.004;8.372;2022-08-02T21:14:50;6.59;;;3.28;;
12072;SDS011;6098;49.004;8.372;2022-08-02T21:29:41;7.98;;;3.87;;
12072;SDS011;6098;49.004;8.372;2022-08-02T21:44:33;5.32;;;3.28;;
12072;SDS011;6098;49.004;8.372;2022-08-02T21:59:24;4.47;;;3.52;;
12072;SDS011;6098;49.004;8.372;2022-08-02T22:14:30;4.66;;;3.70;;
12072;SDS011;6098;49.004;8.372;2022-08-02T22:29:22;5.35;;;3.70;;
12072;SDS011;6098;49.004;8.372;2022-08-02T22:44:13;6.07;;;3.68;;
12072;SDS011;6098;49.004;8.372;2022-08-02T23:15:15;5.15;;;4.28;;
12072;SDS011;6098;49.004;8.372;2022-08-02T23:30:07;5.09;;;3.71;;
12072;SDS011;6098;49.004;8.372;2022-08-02T23:44:58;6.25;;;4.18;;
12072;SDS011;6098;49.004;8.372;2022-08-02T23:59:50;6.32;;;3.87;;
